Time;durP1;ratioP1;P1;durP2;ratioP2;P2;SDS_P1;SDS_P2;PMS_P1;PMS_P2;Temp;Humidity;BMP_temperature;BMP_pressure;BME280_temperature;BME280_humidity;BME280_pressure;Samples;Min_cycle;Max_cycle;Signal;HPM_P1;HPM_P2
2023/03/18 00:01:06;;;;;;;4.00;2.33;;;14.60;88.50;;;;;;5010713;28;20452;-67
2023/03/18 00:03:33;;;;;;;4.10;2.00;;;14.70;88.70;;;;;;5010765;28;20026;-67
2023/03/18 00:06:15;;;;;;;8.73;2.20;;;14.70;89.20;;;;;;5010394;28;20038;-67
2023/03/18 00:08:42;;;;;;;8.70;3.20;;;14.60;90.10;;;;;;5006465;28;20054;-67
2023/03/18 00:11:09;;;;;;;8.77;2.80;;;14.60;90.60;;;;;;5008247;28;20030;-67
2023/03/18 00:13:36;;;;;;;5.43;2.38;;;14.60;91.10;;;;;;5010808;28;20042;-67
2023/03/18 00:16:03;;;;;;;8.40;2.33;;;14.50;93.50;;;;;;5009559;28;20116;-67
2023/03/18 00:18:31;;;;;;;4.07;2.28;;;14.50;93.50;;;;;;5010507;28;20037;-67
2023/03/18 00:20:59;;;;;;;7.57;2.50;;;14.40;94.90;;;;;;5009685;28;20030;-68
2023/03/18 00:23:26;;;;;;;6.07;2.83;;;14.20;96.20;;;;;;5010639;28;20030;-67
2023/03/18 00:25:55;;;;;;;5.53;2.47;;;14.10;95.60;;;;;;5010648;28;20338;-68
2023/03/18 00:28:22;;;;;;;5.05;2.38;;;14.10;96.40;;;;;;5009596;28;20026;-69
2023/03/18 00:30:48;;;;;;;6.95;2.22;;;14.20;95.60;;;;;;5009429;28;20042;-68
2023/03/18 00:33:15;;;;;;;7.97;2.67;;;14.10;95.80;;;;;;5010523;28;20084;-69
2023/03/18 00:35:41;;;;;;;3.92;2.10;;;14.10;95.60;;;;;;5010095;28;20022;-69
2023/03/18 00:38:08;;;;;;;10.70;2.58;;;14.10;96.30;;;;;;5010444;28;20041;-69
2023/03/18 00:40:52;;;;;;;7.68;2.50;;;14.30;95.70;;;;;;5010593;28;20053;-68
2023/03/18 00:43:28;;;;;;;5.35;2.45;;;14.10;95.60;;;;;;5010388;28;20037;-68
2023/03/18 00:45:54;;;;;;;6.45;2.38;;;14.10;94.90;;;;;;5010509;28;20037;-68
2023/03/18 00:48:21;;;;;;;9.35;3.20;;;14.10;94.80;;;;;;5009247;28;20056;-70
2023/03/18 00:50:47;;;;;;;13.80;5.50;;;14.10;94.70;;;;;;5009829;28;20073;-69
2023/03/18 00:53:13;;;;;;;14.43;5.13;;;14.10;94.40;;;;;;5011782;28;20053;-68
2023/03/18 00:55:40;;;;;;;16.65;6.15;;;14.10;95.00;;;;;;5013781;28;20068;-68
2023/03/18 00:58:06;;;;;;;9.50;4.43;;;14.20;94.10;;;;;;5013918;28;20026;-68
2023/03/18 01:00:31;;;;;;;10.52;3.58;;;14.20;94.20;;;;;;5013844;28;20022;-67
2023/03/18 01:02:58;;;;;;;8.27;2.92;;;14.20;94.00;;;;;;5014174;28;20037;-69
2023/03/18 01:05:24;;;;;;;8.05;2.65;;;14.20;93.90;;;;;;5013798;28;20385;-68
2023/03/18 01:07:50;;;;;;;8.82;2.72;;;14.20;93.90;;;;;;5013790;28;20073;-69
2023/03/18 01:10:16;;;;;;;6.38;2.45;;;14.20;94.30;;;;;;5012587;28;20131;-69
2023/03/18 01:12:45;;;;;;;6.28;2.38;;;14.10;94.50;;;;;;5013811;28;20030;-69
2023/03/18 01:15:12;;;;;;;7.30;2.47;;;14.20;94.60;;;;;;5012368;28;20033;-69
2023/03/18 01:17:38;;;;;;;5.72;2.22;;;14.20;95.00;;;;;;5012996;28;20055;-68
2023/03/18 01:20:04;;;;;;;8.65;2.85;;;14.20;94.80;;;;;;5013410;28;20487;-68
2023/03/18 01:22:30;;;;;;;6.68;2.38;;;14.10;95.30;;;;;;5013231;28;20041;-68
2023/03/18 01:24:56;;;;;;;8.75;2.50;;;14.20;95.00;;;;;;5013366;28;20423;-67
2023/03/18 01:27:22;;;;;;;6.68;2.60;;;14.10;95.10;;;;;;5013530;28;20392;-67
2023/03/18 01:29:48;;;;;;;5.85;2.35;;;14.10;94.80;;;;;;5013777;28;20348;-68
2023/03/18 01:32:14;;;;;;;6.35;2.90;;;14.10;94.30;;;;;;5012303;28;20045;-69
2023/03/18 01:34:40;;;;;;;7.55;2.55;;;14.20;94.10;;;;;;5013335;28;20041;-68
2023/03/18 01:37:06;;;;;;;5.47;2.38;;;14.20;94.30;;;;;;5013121;28;20025;-68
2023/03/18 01:39:33;;;;;;;5.20;2.53;;;14.10;93.90;;;;;;5013201;28;20116;-67
2023/03/18 01:41:59;;;;;;;12.07;2.90;;;14.20;93.50;;;;;;5013302;28;20040;-68
2023/03/18 01:44:26;;;;;;;6.55;2.70;;;14.20;93.70;;;;;;5013017;28;20026;-67
2023/03/18 01:46:52;;;;;;;11.13;2.67;;;14.20;93.50;;;;;;5012973;28;20057;-68
2023/03/18 01:49:23;;;;;;;9.40;2.80;;;14.20;93.30;;;;;;5012909;28;20096;-69
2023/03/18 01:51:57;;;;;;;7.35;2.25;;;14.30;93.20;;;;;;5011854;28;20401;-69
2023/03/18 01:54:26;;;;;;;8.25;2.63;;;14.30;93.30;;;;;;5012725;28;20034;-69
2023/03/18 01:56:52;;;;;;;7.00;3.08;;;14.30;93.20;;;;;;5013231;28;20022;-67
2023/03/18 01:59:22;;;;;;;8.55;3.20;;;14.40;93.40;;;;;;5012754;28;20124;-67
2023/03/18 02:02:17;;;;;;;5.90;2.78;;;14.30;93.70;;;;;;5012796;28;20122;-67
2023/03/18 02:04:49;;;;;;;10.05;2.67;;;14.30;95.40;;;;;;5012221;28;20030;-68
2023/03/18 02:07:17;;;;;;;10.10;2.92;;;14.20;96.00;;;;;;5012844;28;20038;-68
2023/03/18 02:09:44;;;;;;;7.20;2.30;;;14.20;95.70;;;;;;5012542;28;20038;-68
2023/03/18 02:12:12;;;;;;;9.07;2.75;;;14.00;97.10;;;;;;5012563;28;20060;-68
2023/03/18 02:14:38;;;;;;;;;;;14.10;97.10;;;;;;5013393;28;20033;-68
2023/03/18 02:17:26;;;;;;;7.45;2.72;;;14.00;97.40;;;;;;5012360;28;19921;-68
2023/03/18 02:20:08;;;;;;;5.88;2.70;;;14.00;97.60;;;;;;5012160;28;20072;-67
2023/03/18 02:22:51;;;;;;;9.73;2.63;;;14.00;98.00;;;;;;5012193;28;20070;-69
2023/03/18 02:25:36;;;;;;;6.53;2.22;;;13.90;98.60;;;;;;5012395;28;20038;-68
2023/03/18 02:28:06;;;;;;;4.75;2.33;;;13.80;98.50;;;;;;5012179;28;20096;-69
2023/03/18 02:30:40;;;;;;;6.25;2.58;;;13.80;98.80;;;;;;5012319;28;20053;-68
2023/03/18 02:33:07;;;;;;;7.57;2.90;;;13.70;99.10;;;;;;5011933;28;20037;-68
2023/03/18 02:35:34;;;;;;;11.23;3.35;;;13.80;99.00;;;;;;5018284;28;20018;-69
2023/03/18 02:37:59;;;;;;;6.35;3.10;;;13.80;99.40;;;;;;5031837;28;20032;-68
2023/03/18 02:40:31;;;;;;;14.30;3.88;;;13.70;99.70;;;;;;5030290;28;20406;-68
2023/03/18 02:43:26;;;;;;;6.35;2.95;;;13.60;99.90;;;;;;5031652;28;20041;-69
2023/03/18 02:46:11;;;;;;;6.97;3.13;;;13.70;99.70;;;;;;5031513;28;20033;-69
2023/03/18 02:48:41;;;;;;;10.52;3.25;;;13.70;99.60;;;;;;5030220;28;20029;-67
2023/03/18 02:51:08;;;;;;;6.97;3.63;;;13.70;99.90;;;;;;5018946;28;20061;-68
2023/03/18 02:53:34;;;;;;;6.88;3.60;;;13.70;99.90;;;;;;5011929;28;20036;-68
2023/03/18 02:56:00;;;;;;;6.55;2.38;;;13.70;99.90;;;;;;5011533;28;20029;-68
2023/03/18 02:58:26;;;;;;;5.88;2.72;;;13.60;99.90;;;;;;5010426;28;20026;-68
2023/03/18 03:00:53;;;;;;;7.78;2.70;;;13.50;99.90;;;;;;5011231;28;20421;-68
2023/03/18 03:03:19;;;;;;;6.57;2.17;;;13.50;99.90;;;;;;5011184;28;20041;-68
2023/03/18 03:05:46;;;;;;;5.63;2.30;;;13.40;99.90;;;;;;5011732;28;20056;-67
2023/03/18 03:08:13;;;;;;;4.88;2.25;;;13.30;99.90;;;;;;5011226;28;20022;-68
2023/03/18 03:10:38;;;;;;;6.15;3.00;;;13.40;99.90;;;;;;5011042;28;20727;-68
2023/03/18 03:13:06;;;;;;;7.47;2.40;;;13.50;99.90;;;;;;5010519;28;20026;-67
2023/03/18 03:15:32;;;;;;;9.15;3.10;;;13.40;99.90;;;;;;5010642;28;20468;-69
2023/03/18 03:17:58;;;;;;;6.65;2.67;;;13.40;99.90;;;;;;5011691;28;20068;-68
2023/03/18 03:20:24;;;;;;;7.70;3.30;;;13.30;99.90;;;;;;5011152;28;20057;-68
2023/03/18 03:22:50;;;;;;;7.18;2.80;;;13.40;99.90;;;;;;5010856;28;20502;-68
2023/03/18 03:25:16;;;;;;;9.70;3.20;;;13.40;99.90;;;;;;5010151;28;20045;-67
2023/03/18 03:27:42;;;;;;;11.52;3.17;;;13.30;99.90;;;;;;5011150;28;20037;-67
2023/03/18 03:30:11;;;;;;;9.38;2.83;;;13.40;99.90;;;;;;5010595;28;20424;-68
2023/03/18 03:32:37;;;;;;;6.72;2.72;;;13.30;99.90;;;;;;5011554;28;20137;-68
2023/03/18 03:35:04;;;;;;;8.23;3.33;;;13.20;99.90;;;;;;5009786;28;20037;-68
2023/03/18 03:37:29;;;;;;;8.25;3.38;;;13.20;99.90;;;;;;5010737;28;20033;-67
2023/03/18 03:39:55;;;;;;;13.23;4.70;;;13.40;99.90;;;;;;5010706;28;20370;-69
2023/03/18 03:42:21;;;;;;;14.30;4.80;;;13.20;99.90;;;;;;5010657;28;20032;-67
2023/03/18 03:44:46;;;;;;;10.93;5.00;;;13.30;99.90;;;;;;5011451;28;20325;-68
2023/03/18 03:47:12;;;;;;;11.82;5.10;;;13.30;99.90;;;;;;5009737;28;20034;-68
2023/03/18 03:49:38;;;;;;;11.82;4.43;;;13.40;99.90;;;;;;5010847;28;20087;-67
2023/03/18 03:52:04;;;;;;;12.65;4.45;;;13.30;99.90;;;;;;5009597;28;20527;-68
2023/03/18 03:54:30;;;;;;;9.15;4.85;;;13.20;99.90;;;;;;5010526;28;20029;-68
2023/03/18 03:56:56;;;;;;;9.60;4.68;;;13.20;99.90;;;;;;5010918;28;20018;-68
2023/03/18 03:59:21;;;;;;;8.43;5.18;;;13.20;99.90;;;;;;5010470;28;20393;-68
2023/03/18 04:01:47;;;;;;;11.75;5.03;;;13.20;99.90;;;;;;5009668;28;20043;-68
2023/03/18 04:04:13;;;;;;;13.35;5.38;;;13.20;99.90;;;;;;5010598;28;20119;-67
2023/03/18 04:06:38;;;;;;;15.70;5.38;;;13.20;99.90;;;;;;5010766;28;20479;-68
2023/03/18 04:09:04;;;;;;;6.65;4.22;;;13.20;99.90;;;;;;5010815;28;20412;-68
2023/03/18 04:11:30;;;;;;;15.73;5.40;;;13.20;99.90;;;;;;5011257;28;20026;-69
2023/03/18 04:13:56;;;;;;;10.30;5.75;;;13.10;99.90;;;;;;5009691;28;20034;-68
2023/03/18 04:16:22;;;;;;;12.38;6.28;;;13.10;99.90;;;;;;5009487;28;20030;-68
2023/03/18 04:18:47;;;;;;;15.63;5.60;;;13.10;99.90;;;;;;5010340;28;20129;-67
2023/03/18 04:21:13;;;;;;;17.40;6.88;;;13.10;99.90;;;;;;5009368;28;20030;-67
2023/03/18 04:23:39;;;;;;;15.15;6.20;;;13.00;99.90;;;;;;5011139;28;20018;-69
2023/03/18 04:26:05;;;;;;;14.25;6.45;;;13.10;99.90;;;;;;5010555;28;20528;-68
2023/03/18 04:28:31;;;;;;;16.38;5.90;;;13.10;99.90;;;;;;5014083;28;20030;-69
2023/03/18 04:30:57;;;;;;;14.02;6.72;;;13.10;99.90;;;;;;5013090;28;20042;-67
2023/03/18 04:33:23;;;;;;;10.57;5.72;;;13.10;99.90;;;;;;5014430;28;20030;-69
2023/03/18 04:35:49;;;;;;;21.50;6.50;;;13.10;99.90;;;;;;5014649;28;20092;-68
2023/03/18 04:38:15;;;;;;;14.13;7.03;;;13.10;99.90;;;;;;5014272;28;20026;-67
2023/03/18 04:40:41;;;;;;;18.27;6.57;;;13.00;99.90;;;;;;5014407;28;20045;-68
2023/03/18 04:43:08;;;;;;;13.10;6.32;;;13.00;99.90;;;;;;5014121;28;20037;-68
2023/03/18 04:45:34;;;;;;;17.90;6.28;;;13.00;99.90;;;;;;5013299;28;20481;-68
2023/03/18 04:48:00;;;;;;;12.68;6.30;;;13.00;99.90;;;;;;5014336;28;20104;-69
2023/03/18 04:50:27;;;;;;;9.95;6.07;;;13.00;99.90;;;;;;5012803;28;20091;-68
2023/03/18 04:52:53;;;;;;;16.02;6.88;;;12.90;99.90;;;;;;5013992;28;20124;-69
2023/03/18 04:55:20;;;;;;;13.63;5.75;;;12.90;99.90;;;;;;5013716;28;20458;-69
2023/03/18 04:57:47;;;;;;;13.05;5.28;;;12.90;99.90;;;;;;5013669;28;20030;-68
2023/03/18 05:00:16;;;;;;;14.60;5.68;;;13.00;99.90;;;;;;5012917;28;20056;-67
2023/03/18 05:02:42;;;;;;;12.70;5.90;;;12.90;99.90;;;;;;5014156;28;20057;-68
2023/03/18 05:05:09;;;;;;;12.25;4.85;;;12.90;99.90;;;;;;5013687;28;20033;-68
2023/03/18 05:07:35;;;;;;;10.43;4.95;;;12.90;99.90;;;;;;5012576;28;20030;-69
2023/03/18 05:10:03;;;;;;;15.07;5.55;;;12.80;99.90;;;;;;5013467;28;20038;-67
2023/03/18 05:12:29;;;;;;;14.27;5.20;;;12.80;99.90;;;;;;5012627;28;20065;-68
2023/03/18 05:14:55;;;;;;;14.95;5.53;;;12.80;99.90;;;;;;5014090;28;20030;-67
2023/03/18 05:17:21;;;;;;;18.58;5.20;;;12.70;99.90;;;;;;5013540;28;20480;-68
2023/03/18 05:19:47;;;;;;;10.13;4.97;;;12.70;99.90;;;;;;5012355;28;20066;-68
2023/03/18 05:22:15;;;;;;;11.93;4.50;;;12.70;99.90;;;;;;5012915;28;20098;-67
2023/03/18 05:24:42;;;;;;;13.18;5.82;;;12.60;99.90;;;;;;5011850;28;20034;-67
2023/03/18 05:27:09;;;;;;;12.45;5.05;;;12.60;99.90;;;;;;5012826;28;20022;-67
2023/03/18 05:29:37;;;;;;;12.07;5.50;;;12.60;99.90;;;;;;5013688;28;20052;-67
2023/03/18 05:32:05;;;;;;;14.73;5.75;;;12.50;99.90;;;;;;5013075;28;20065;-67
2023/03/18 05:34:38;;;;;;;10.95;4.70;;;12.50;99.90;;;;;;5013041;28;20490;-68
2023/03/18 05:37:06;;;;;;;10.23;4.95;;;12.50;99.90;;;;;;5013173;28;20030;-67
2023/03/18 05:39:33;;;;;;;12.50;4.50;;;12.50;99.90;;;;;;5011950;28;20044;-67
2023/03/18 05:41:59;;;;;;;12.68;4.75;;;12.50;99.90;;;;;;5012081;28;20096;-67
2023/03/18 05:44:25;;;;;;;12.80;5.05;;;12.50;99.90;;;;;;5012780;28;20367;-68
2023/03/18 05:46:51;;;;;;;11.55;4.38;;;12.70;99.90;;;;;;5012619;28;20411;-67
2023/03/18 05:49:22;;;;;;;10.45;4.30;;;12.50;99.90;;;;;;5012557;28;20459;-66
2023/03/18 05:51:48;;;;;;;14.82;5.07;;;12.50;99.90;;;;;;5012975;28;20030;-68
2023/03/18 05:54:15;;;;;;;12.88;4.57;;;12.50;99.90;;;;;;5013014;28;20122;-67
2023/03/18 05:56:42;;;;;;;11.02;4.65;;;12.50;99.90;;;;;;5012127;28;20353;-68
2023/03/18 05:59:08;;;;;;;6.97;4.30;;;12.60;99.90;;;;;;5011548;28;20034;-67
2023/03/18 06:01:36;;;;;;;10.40;4.25;;;12.60;99.90;;;;;;5012289;28;20038;-67
2023/03/18 06:04:02;;;;;;;9.20;5.00;;;12.60;99.90;;;;;;5012834;28;20062;-68
2023/03/18 06:06:27;;;;;;;10.60;4.63;;;12.70;99.90;;;;;;5012583;28;20100;-68
2023/03/18 06:08:55;;;;;;;10.52;4.60;;;12.60;99.90;;;;;;5013012;28;20029;-68
2023/03/18 06:11:20;;;;;;;11.90;4.28;;;12.60;99.90;;;;;;5012526;28;20064;-68
2023/03/18 06:13:46;;;;;;;10.82;4.60;;;12.60;99.90;;;;;;5011244;28;20050;-67
2023/03/18 06:16:13;;;;;;;12.05;4.45;;;12.60;99.90;;;;;;5012435;28;20026;-67
2023/03/18 06:18:39;;;;;;;10.45;4.18;;;12.70;99.90;;;;;;5011291;28;20287;-67
2023/03/18 06:21:08;;;;;;;8.10;3.80;;;12.70;99.90;;;;;;5012565;28;20014;-69
2023/03/18 06:23:35;;;;;;;9.43;4.15;;;12.70;99.90;;;;;;5011583;28;20036;-67
2023/03/18 06:26:01;;;;;;;13.10;4.15;;;12.70;99.90;;;;;;5012021;28;20082;-68
2023/03/18 06:28:28;;;;;;;11.60;4.35;;;12.70;99.90;;;;;;5011938;28;20053;-68
2023/03/18 06:30:57;;;;;;;10.55;4.68;;;12.80;99.90;;;;;;5011870;28;20065;-69
2023/03/18 06:33:24;;;;;;;10.50;4.28;;;12.80;99.90;;;;;;5012175;28;20049;-69
2023/03/18 06:35:52;;;;;;;14.68;3.58;;;12.90;99.90;;;;;;5012663;28;20080;-69
2023/03/18 06:38:18;;;;;;;7.72;3.97;;;12.90;99.90;;;;;;5011818;28;20022;-69
2023/03/18 06:40:44;;;;;;;13.07;3.95;;;12.90;99.90;;;;;;5010600;28;20069;-67
2023/03/18 06:43:10;;;;;;;16.38;7.60;;;12.90;99.90;;;;;;5011689;28;20396;-68
2023/03/18 06:45:37;;;;;;;15.02;6.70;;;12.90;99.90;;;;;;5011741;28;20037;-66
2023/03/18 06:48:03;;;;;;;17.35;6.95;;;13.00;99.90;;;;;;5011867;28;20091;-67
2023/03/18 06:50:30;;;;;;;14.60;6.43;;;13.00;99.90;;;;;;5011405;28;20479;-67
2023/03/18 06:52:57;;;;;;;11.45;6.20;;;12.90;99.90;;;;;;5010385;28;20044;-68
2023/03/18 06:55:24;;;;;;;7.05;3.35;;;12.90;99.90;;;;;;5010362;28;20034;-69
2023/03/18 06:57:51;;;;;;;6.88;3.42;;;13.00;99.90;;;;;;5011681;28;20038;-69
2023/03/18 07:00:17;;;;;;;8.73;3.45;;;13.00;99.90;;;;;;5008431;28;20076;-68
2023/03/18 07:02:44;;;;;;;13.88;4.00;;;13.00;99.90;;;;;;5012839;28;20018;-68
2023/03/18 07:05:11;;;;;;;10.00;3.40;;;13.00;99.90;;;;;;5012507;28;20037;-69
2023/03/18 07:07:38;;;;;;;7.00;3.45;;;13.00;99.90;;;;;;5012365;28;20056;-69
2023/03/18 07:10:06;;;;;;;11.15;3.53;;;13.00;99.90;;;;;;5012416;28;20037;-70
2023/03/18 07:12:32;;;;;;;;;;;13.10;99.90;;;;;;5012470;28;20026;-69
2023/03/18 07:14:58;;;;;;;7.32;3.67;;;13.10;99.90;;;;;;5012556;28;20319;-69
2023/03/18 07:17:24;;;;;;;7.78;3.28;;;13.20;99.90;;;;;;5012263;28;20033;-69
2023/03/18 07:19:50;;;;;;;14.00;3.35;;;13.30;99.90;;;;;;5012101;28;20380;-69
2023/03/18 07:22:16;;;;;;;8.38;3.40;;;13.30;99.90;;;;;;5011986;28;20117;-70
2023/03/18 07:24:44;;;;;;;7.93;3.53;;;13.40;99.90;;;;;;5012109;28;20030;-69
2023/03/18 07:27:12;;;;;;;11.35;3.03;;;13.50;99.90;;;;;;5012039;28;20527;-69
2023/03/18 07:29:38;;;;;;;8.65;4.32;;;13.60;99.90;;;;;;5012206;28;20105;-68
2023/03/18 07:32:04;;;;;;;14.88;5.22;;;13.60;99.90;;;;;;5011889;28;20555;-68
2023/03/18 07:34:30;;;;;;;11.45;3.58;;;13.70;99.90;;;;;;5011741;28;20560;-67
2023/03/18 07:36:56;;;;;;;10.45;3.10;;;13.80;99.90;;;;;;5010889;28;20046;-69
2023/03/18 07:39:22;;;;;;;11.27;3.03;;;13.70;99.90;;;;;;5011996;28;20244;-69
2023/03/18 07:41:48;;;;;;;10.10;3.17;;;13.80;99.90;;;;;;5012102;28;20508;-69
2023/03/18 07:44:14;;;;;;;7.75;2.70;;;13.70;99.90;;;;;;5011561;28;20440;-68
2023/03/18 07:46:40;;;;;;;10.65;3.20;;;13.80;99.90;;;;;;5011666;28;20030;-70
2023/03/18 07:49:05;;;;;;;9.55;2.67;;;13.70;99.90;;;;;;5011948;28;20117;-68
2023/03/18 07:51:31;;;;;;;9.70;3.67;;;13.80;99.90;;;;;;5011734;28;20057;-67
2023/03/18 07:53:58;;;;;;;11.88;3.35;;;13.80;99.90;;;;;;5012260;28;20034;-69
2023/03/18 07:56:24;;;;;;;8.02;2.70;;;13.90;99.90;;;;;;5011785;28;20120;-68
2023/03/18 07:58:50;;;;;;;6.88;2.78;;;13.90;99.90;;;;;;5010523;28;20034;-68
2023/03/18 08:01:18;;;;;;;8.57;3.13;;;14.00;99.90;;;;;;5011613;28;20099;-67
2023/03/18 08:03:45;;;;;;;14.20;5.15;;;14.00;99.90;;;;;;5014976;28;20526;-68
2023/03/18 08:06:11;;;;;;;11.68;3.22;;;14.00;99.90;;;;;;5014670;28;20034;-66
2023/03/18 08:08:38;;;;;;;7.53;2.58;;;14.00;99.90;;;;;;5014082;28;20101;-68
2023/03/18 08:11:03;;;;;;;10.93;3.08;;;14.10;99.90;;;;;;5014955;28;20048;-70
2023/03/18 08:13:29;;;;;;;12.95;3.72;;;14.10;99.90;;;;;;5014626;28;20488;-68
2023/03/18 08:15:55;;;;;;;9.05;2.90;;;14.10;99.90;;;;;;5014864;28;20492;-68
2023/03/18 08:18:22;;;;;;;6.80;2.80;;;14.20;99.90;;;;;;5014745;28;20077;-70
2023/03/18 08:20:48;;;;;;;3.88;2.15;;;14.40;99.90;;;;;;5015107;28;20045;-68
2023/03/18 08:23:13;;;;;;;8.65;2.80;;;14.30;99.90;;;;;;5014406;28;20033;-68
2023/03/18 08:25:40;;;;;;;6.97;2.70;;;14.50;99.90;;;;;;5014479;28;20061;-67
2023/03/18 08:28:06;;;;;;;12.77;3.38;;;14.40;99.90;;;;;;5014266;28;20030;-66
2023/03/18 08:30:33;;;;;;;7.25;3.05;;;14.50;99.90;;;;;;5012854;28;20053;-68
2023/03/18 08:32:59;;;;;;;7.90;3.10;;;14.60;99.90;;;;;;5015065;28;20102;-68
2023/03/18 08:35:25;;;;;;;7.38;2.45;;;14.80;99.90;;;;;;5014481;28;20112;-67
2023/03/18 08:37:51;;;;;;;9.25;2.67;;;14.80;99.90;;;;;;5014132;28;20069;-68
2023/03/18 08:40:19;;;;;;;8.40;3.05;;;15.00;99.90;;;;;;5014266;28;20041;-68
2023/03/18 08:42:45;;;;;;;4.90;2.33;;;15.20;99.90;;;;;;5014161;28;20030;-69
2023/03/18 08:45:11;;;;;;;6.60;2.80;;;15.40;99.90;;;;;;5013915;28;20270;-68
2023/03/18 08:47:38;;;;;;;11.23;3.08;;;15.50;99.90;;;;;;5013395;28;20028;-68
2023/03/18 08:50:05;;;;;;;6.10;2.50;;;15.50;99.90;;;;;;5013890;28;20033;-67
2023/03/18 08:52:31;;;;;;;6.03;2.72;;;15.60;99.90;;;;;;5013897;28;20095;-68
2023/03/18 08:54:57;;;;;;;7.18;2.92;;;15.70;99.90;;;;;;5012678;28;20030;-69
2023/03/18 08:57:23;;;;;;;8.80;2.72;;;15.80;99.90;;;;;;5013585;28;20062;-68
2023/03/18 08:59:49;;;;;;;6.05;3.05;;;15.80;99.90;;;;;;5014068;28;20456;-70
2023/03/18 09:02:15;;;;;;;5.40;2.60;;;15.90;99.90;;;;;;5013785;28;20511;-70
2023/03/18 09:04:42;;;;;;;14.20;7.43;;;15.90;99.90;;;;;;5013459;28;20433;-69
2023/03/18 09:07:08;;;;;;;11.50;5.72;;;15.90;99.90;;;;;;5013499;28;20121;-70
2023/03/18 09:09:34;;;;;;;8.20;3.03;;;16.00;99.90;;;;;;5013232;28;20348;-70
2023/03/18 09:12:00;;;;;;;9.20;2.97;;;15.90;99.80;;;;;;5014186;28;20113;-70
2023/03/18 09:14:26;;;;;;;7.65;2.75;;;16.00;99.80;;;;;;5012333;28;20030;-69
2023/03/18 09:16:53;;;;;;;12.05;4.38;;;16.10;99.70;;;;;;5012314;28;20037;-70
2023/03/18 09:19:18;;;;;;;10.57;4.85;;;16.20;99.50;;;;;;5012412;28;20034;-70
2023/03/18 09:21:45;;;;;;;10.13;3.60;;;16.90;99.40;;;;;;5011970;28;20030;-70
2023/03/18 09:24:10;;;;;;;9.63;4.25;;;17.20;98.50;;;;;;5012945;28;20361;-69
2023/03/18 09:26:38;;;;;;;17.92;8.15;;;17.30;98.40;;;;;;5013775;28;20025;-69
2023/03/18 09:29:04;;;;;;;13.43;3.97;;;17.60;98.30;;;;;;5013129;28;20404;-67
2023/03/18 09:31:30;;;;;;;5.57;2.42;;;17.60;97.70;;;;;;5011788;28;20054;-71
2023/03/18 09:33:56;;;;;;;8.38;2.67;;;17.50;97.70;;;;;;5013135;28;20041;-66
2023/03/18 09:36:22;;;;;;;7.30;2.85;;;17.40;97.50;;;;;;5013068;28;20076;-66
2023/03/18 09:38:47;;;;;;;8.00;3.15;;;17.70;97.90;;;;;;5013137;28;20033;-68
2023/03/18 09:41:42;;;;;;;7.68;2.78;;;18.20;97.00;;;;;;5013102;28;20113;-67
2023/03/18 09:44:23;;;;;;;6.20;2.60;;;19.30;95.50;;;;;;5007126;28;20091;-69
2023/03/18 09:47:09;;;;;;;8.18;2.83;;;19.60;95.20;;;;;;5012908;28;20038;-68
2023/03/18 09:50:01;;;;;;;8.20;3.50;;;20.80;92.70;;;;;;5012594;28;20166;-69
2023/03/18 09:52:33;;;;;;;3.92;2.55;;;21.80;92.90;;;;;;5011693;28;20092;-69
2023/03/18 09:55:02;;;;;;;6.03;2.58;;;21.50;91.40;;;;;;5011427;28;20059;-67
2023/03/18 09:57:30;;;;;;;5.75;2.55;;;20.60;91.60;;;;;;5011213;28;20029;-69
2023/03/18 10:00:23;;;;;;;5.35;2.78;;;20.30;92.50;;;;;;5012805;28;20105;-68
2023/03/18 10:03:08;;;;;;;11.90;2.97;;;19.80;92.20;;;;;;5012678;28;20045;-68
2023/03/18 10:05:48;;;;;;;6.95;2.70;;;19.50;92.90;;;;;;5011607;28;20045;-69
2023/03/18 10:08:53;;;;;;;4.45;2.50;;;20.00;93.10;;;;;;5012780;28;20030;-67
2023/03/18 10:11:31;;;;;;;7.13;3.10;;;21.10;92.30;;;;;;5011426;28;20034;-68
2023/03/18 10:14:06;;;;;;;6.60;2.60;;;20.80;91.40;;;;;;5012592;28;20087;-68
2023/03/18 10:16:54;;;;;;;7.55;2.90;;;20.60;91.10;;;;;;5012494;28;20333;-67
2023/03/18 10:19:20;;;;;;;5.93;2.63;;;20.30;91.40;;;;;;5012283;28;20037;-69
2023/03/18 10:22:03;;;;;;;8.00;2.63;;;19.50;92.10;;;;;;5011944;28;20034;-67
2023/03/18 10:24:55;;;;;;;5.28;2.70;;;18.90;92.60;;;;;;5011233;28;20037;-68
2023/03/18 10:27:31;;;;;;;5.10;2.53;;;18.80;93.10;;;;;;5012065;28;20329;-68
2023/03/18 10:30:05;;;;;;;7.35;3.30;;;18.90;93.10;;;;;;5012661;28;20098;-68
2023/03/18 10:32:56;;;;;;;7.72;3.00;;;18.90;93.10;;;;;;5012128;28;20377;-68
2023/03/18 10:35:44;;;;;;;5.05;2.63;;;19.30;93.00;;;;;;5011907;28;20030;-67
2023/03/18 10:38:24;;;;;;;;;;;19.40;92.80;;;;;;5012167;28;20034;-68
2023/03/18 10:40:50;;;;;;;6.72;2.88;;;19.20;92.90;;;;;;5011610;28;19953;-68
2023/03/18 10:43:21;;;;;;;6.03;2.63;;;19.30;92.40;;;;;;5011616;28;20042;-68
2023/03/18 10:45:51;;;;;;;8.25;2.78;;;19.20;92.30;;;;;;5011783;28;20033;-69
2023/03/18 10:48:29;;;;;;;6.30;2.60;;;19.60;92.40;;;;;;5012059;28;20021;-69
2023/03/18 10:51:08;;;;;;;5.22;2.17;;;19.80;91.90;;;;;;5012157;28;20045;-69
2023/03/18 10:53:57;;;;;;;5.70;2.28;;;20.50;92.00;;;;;;5011663;28;20041;-67
2023/03/18 10:56:23;;;;;;;9.25;2.53;;;20.60;91.00;;;;;;5011630;28;20030;-69
2023/03/18 10:58:49;;;;;;;5.40;2.83;;;20.20;91.00;;;;;;5011366;28;20049;-67
2023/03/18 11:01:17;;;;;;;3.90;2.47;;;19.70;91.30;;;;;;5010226;28;20041;-67
2023/03/18 11:04:00;;;;;;;5.03;2.60;;;19.80;91.40;;;;;;5011354;28;20041;-69
2023/03/18 11:06:34;;;;;;;6.93;2.55;;;19.90;91.40;;;;;;5011378;28;20405;-68
2023/03/18 11:09:07;;;;;;;7.53;2.85;;;19.80;91.40;;;;;;5011603;28;20021;-69
2023/03/18 11:11:33;;;;;;;4.65;2.60;;;19.80;91.20;;;;;;5011376;28;20121;-68
2023/03/18 11:14:04;;;;;;;4.00;2.17;;;19.30;91.60;;;;;;5011136;28;20569;-69
2023/03/18 11:16:41;;;;;;;7.00;2.58;;;19.20;91.90;;;;;;5011151;28;20041;-68
2023/03/18 11:19:28;;;;;;;8.63;2.87;;;19.30;91.90;;;;;;5011204;28;20133;-69
2023/03/18 11:22:08;;;;;;;5.10;2.58;;;19.10;91.80;;;;;;5010775;28;20034;-68
2023/03/18 11:24:37;;;;;;;6.20;2.58;;;18.90;92.00;;;;;;5011033;28;20087;-68
2023/03/18 11:27:13;;;;;;;5.50;2.75;;;18.70;92.30;;;;;;5010815;28;20145;-68
2023/03/18 11:29:48;;;;;;;5.47;2.67;;;18.90;92.40;;;;;;5011304;28;20136;-68
2023/03/18 11:32:29;;;;;;;7.30;2.40;;;18.80;92.30;;;;;;5010678;28;20560;-70
2023/03/18 11:35:00;;;;;;;5.70;2.55;;;18.80;92.30;;;;;;5010946;28;20368;-67
2023/03/18 11:37:35;;;;;;;8.98;3.25;;;18.90;92.40;;;;;;5010365;28;20538;-68
2023/03/18 11:40:13;;;;;;;4.95;2.58;;;19.50;92.00;;;;;;5010872;28;20579;-69
2023/03/18 11:42:39;;;;;;;;;;;19.70;91.00;;;;;;5011474;28;20042;-69
2023/03/18 11:45:30;;;;;;;5.22;2.50;;;19.70;90.80;;;;;;5010633;28;20067;-68
2023/03/18 11:47:57;;;;;;;8.50;2.90;;;20.00;90.90;;;;;;5011193;28;20371;-69
2023/03/18 11:50:28;;;;;;;5.25;2.50;;;20.30;90.80;;;;;;5009917;28;20468;-69
2023/03/18 11:53:11;;;;;;;6.90;3.15;;;20.50;90.60;;;;;;5010563;28;20411;-69
2023/03/18 11:55:58;;;;;;;8.80;4.75;;;20.20;90.30;;;;;;5009539;28;20073;-68
2023/03/18 11:58:33;;;;;;;6.95;2.83;;;20.50;90.50;;;;;;5010568;28;20113;-69
2023/03/18 12:01:16;;;;;;;7.20;2.60;;;20.60;90.10;;;;;;5010886;28;20476;-69
2023/03/18 12:03:59;;;;;;;5.93;2.70;;;20.60;90.20;;;;;;5010456;28;20460;-68
2023/03/18 12:06:31;;;;;;;5.20;2.10;;;20.60;89.90;;;;;;5010618;28;20091;-71
2023/03/18 12:09:13;;;;;;;6.25;2.30;;;20.50;90.20;;;;;;5010982;28;20032;-69
2023/03/18 12:12:23;;;;;;;4.45;2.13;;;20.50;90.00;;;;;;5010941;28;20060;-68
2023/03/18 12:15:03;;;;;;;7.38;3.25;;;20.00;89.30;;;;;;5009235;28;20116;-69
2023/03/18 12:17:45;;;;;;;2.95;2.15;;;19.70;90.20;;;;;;5010856;28;20050;-69
2023/03/18 12:20:30;;;;;;;4.70;2.35;;;19.30;90.40;;;;;;5010419;28;20415;-69
2023/03/18 12:23:07;;;;;;;7.30;2.35;;;19.00;90.80;;;;;;5010705;28;20360;-70
2023/03/18 12:25:51;;;;;;;3.72;2.30;;;19.50;90.90;;;;;;5010466;28;20079;-70
2023/03/18 12:29:06;;;;;;;6.07;2.63;;;19.60;90.70;;;;;;5010335;28;20075;-69
2023/03/18 12:31:58;;;;;;;37.53;20.88;;;19.60;90.90;;;;;;5009107;28;20042;-70
2023/03/18 12:34:23;;;;;;;12.30;5.25;;;19.80;90.80;;;;;;5009193;28;20068;-69
2023/03/18 12:37:21;;;;;;;4.53;3.10;;;19.50;90.90;;;;;;5010138;28;20061;-70
2023/03/18 12:39:59;;;;;;;5.13;2.70;;;19.60;90.90;;;;;;5010117;28;20118;-69
2023/03/18 12:42:41;;;;;;;15.35;6.78;;;19.60;90.60;;;;;;5009007;28;20037;-70
2023/03/18 12:45:13;;;;;;;7.18;3.80;;;19.60;90.90;;;;;;5010233;28;20025;-71
2023/03/18 12:48:20;;;;;;;6.00;2.83;;;19.40;91.10;;;;;;5011185;28;20041;-70
2023/03/18 12:50:55;;;;;;;4.20;2.28;;;19.50;90.90;;;;;;4998882;28;20196;-69
2023/03/18 12:53:33;;;;;;;5.10;2.45;;;19.30;90.60;;;;;;5013113;28;20535;-70
2023/03/18 12:56:04;;;;;;;5.85;2.55;;;19.30;90.90;;;;;;5013986;28;20037;-69
2023/03/18 12:58:36;;;;;;;6.43;3.40;;;19.60;91.00;;;;;;5013829;28;20033;-69